Time,TemperatureF,DewpointF,PressureIn,WindDirection,WindDirectionDegrees,WindSpeedMPH,WindSpeedGustMPH,Humidity,HourlyPrecipIn,Conditions,Clouds,dailyrainin,SolarRadiationWatts/m^2,SoftwareType,DateUTC
2013-01-11 00:01:00,48.5,27.7,29.44,WSW,238,16.6,22.7,44,-99.99,,,0.00,0,rob ver 1A,2013-01-11 07:01:00,
2013-01-11 00:06:00,48.5,27.6,29.44,WSW,242,18.3,22.0,44,-99.99,,,0.00,0,rob ver 1A,2013-01-11 07:06:00,
2013-01-11 00:11:00,48.7,27.7,29.47,WSW,248,19.6,23.7,43,-99.99,,,0.00,0,rob ver 1B,2013-01-11 07:11:00,
2013-01-11 00:16:00,48.5,27.7,29.47,WSW,252,16.5,19.7,44,-99.99,,,0.00,0,rob ver 1A,2013-01-11 07:16:00,
2013-01-11 00:21:00,48.1,27.7,29.47,WSW,258,13.1,15.6,45,-99.99,,,0.00,0,rob ver 1A,2013-01-11 07:21:00,
2013-01-11 00:26:00,48.0,27.9,29.47,WSW,256,14.4,18.9,45,-99.99,,,0.00,0,rob ver 1A,2013-01-11 07:26:00,
2013-01-11 00:31:00,47.7,27.9,29.47,West,274,11.5,18.9,46,-99.99,,,0.00,0,rob ver 1A,2013-01-11 07:31:00,
2013-01-11 00:36:00,47.6,27.7,29.47,West,260,9.5,11.2,45,-99.99,,,0.00,0,rob ver 1A,2013-01-11 07:36:00,
2013-01-11 00:41:00,47.6,27.9,29.47,WSW,246,10.1,12.6,46,-99.99,,,0.00,0,rob ver 1A,2013-01-11 07:41:00,
2013-01-11 00:46:00,48.0,28.0,29.47,WSW,251,13.1,17.2,45,-99.99,,,0.00,0,rob ver 1A,2013-01-11 07:46:00,
2013-01-11 00:51:00,47.5,28.0,29.47,WSW,240,11.4,14.8,46,-99.99,,,0.00,0,rob ver 1A,2013-01-11 07:51:00,
2013-01-11 00:56:00,47.5,28.2,29.47,SW,232,12.6,15.7,46,-99.99,,,0.00,0,rob ver 1A,2013-01-11 07:56:00,
2013-01-11 01:01:00,47.5,28.3,29.47,SW,235,13.5,15.6,47,-99.99,,,0.00,0,rob ver 1A,2013-01-11 08:01:00,
2013-01-11 01:06:00,47.2,28.2,29.47,WSW,242,10.0,12.6,47,-99.99,,,0.00,0,rob ver 1A,2013-01-11 08:06:00,
2013-01-11 01:14:00,46.5,28.1,29.50,West,264,9.3,10.9,48,-99.99,,,0.00,0,rob ver 1B,2013-01-11 08:14:00,
2013-01-11 01:20:00,46.3,28.2,29.50,West,263,8.5,10.4,49,-99.99,,,0.00,0,rob ver 1B,2013-01-11 08:20:00,
2013-01-11 01:25:00,46.1,28.2,29.50,WSW,253,7.4,8.5,49,-99.99,,,0.00,0,rob ver 1A,2013-01-11 08:25:00,
2013-01-11 01:30:00,46.2,28.3,29.50,WSW,240,7.2,9.5,49,-99.99,,,0.00,0,rob ver 1A,2013-01-11 08:30:00,
2013-01-11 01:35:00,45.2,28.1,29.50,SW,220,6.1,6.8,50,-99.99,,,0.00,0,rob ver 1A,2013-01-11 08:35:00,
2013-01-11 01:40:00,44.5,27.9,29.50,SSW,205,5.9,6.5,51,-99.99,,,0.00,0,rob ver 1A,2013-01-11 08:40:00,
2013-01-11 01:45:00,44.4,27.8,29.50,SSW,208,5.7,6.1,52,-99.99,,,0.00,0,rob ver 1A,2013-01-11 08:45:00,
2013-01-11 01:50:00,44.2,28.3,29.50,SSW,210,6.4,6.8,53,-99.99,,,0.00,0,rob ver 1A,2013-01-11 08:50:00,
2013-01-11 01:55:00,46.2,28.5,29.50,SW,226,7.8,9.5,49,-99.99,,,0.00,0,rob ver 1B,2013-01-11 08:55:00,
2013-01-11 02:00:00,45.0,28.0,29.50,SW,227,3.4,3.8,51,-99.99,,,0.00,0,rob ver 1A,2013-01-11 09:00:00,
2013-01-11 02:05:00,44.5,28.2,29.50,WSW,254,3.8,4.4,52,-99.99,,,0.00,0,rob ver 1A,2013-01-11 09:05:00,
2013-01-11 02:10:00,44.9,28.2,29.50,SW,229,4.7,5.6,51,-99.99,,,0.00,0,rob ver 1A,2013-01-11 09:10:00,
2013-01-11 02:15:00,44.8,27.9,29.50,SW,227,4.4,6.8,51,-99.99,,,0.00,0,rob ver 1A,2013-01-11 09:15:00,
2013-01-11 02:20:00,44.4,27.8,29.50,SSW,213,4.1,5.0,51,-99.99,,,0.00,0,rob ver 1A,2013-01-11 09:20:00,
2013-01-11 02:25:00,43.7,27.7,29.50,SW,217,4.9,5.2,52,-99.99,,,0.00,0,rob ver 1A,2013-01-11 09:25:00,
2013-01-11 02:30:00,42.9,27.5,29.50,SSW,210,5.8,7.9,55,-99.99,,,0.00,0,rob ver 1A,2013-01-11 09:30:00,
2013-01-11 02:35:00,43.0,27.5,29.50,SW,214,6.5,7.5,54,-99.99,,,0.00,0,rob ver 1A,2013-01-11 09:35:00,
2013-01-11 02:40:00,43.3,27.6,29.50,WSW,247,5.4,6.1,53,-99.99,,,0.00,0,rob ver 1A,2013-01-11 09:40:00,
2013-01-11 02:46:00,43.4,27.7,29.50,WSW,253,5.5,7.7,53,-99.99,,,0.00,0,rob ver 1B,2013-01-11 09:46:00,
2013-01-11 02:51:00,43.7,27.8,29.50,SW,234,5.5,6.4,53,-99.99,,,0.00,0,rob ver 1A,2013-01-11 09:51:00,
2013-01-11 02:56:00,43.8,28.0,29.50,WSW,255,5.1,6.2,52,-99.99,,,0.00,0,rob ver 1A,2013-01-11 09:56:00,
2013-01-11 03:01:00,44.5,26.0,29.53,West,260,5.2,6.0,49,-99.99,,,0.00,0,rob ver 1A,2013-01-11 10:01:00,
2013-01-11 03:06:00,44.0,25.9,29.53,WNW,282,5.6,6.1,48,-99.99,,,0.00,0,rob ver 1B,2013-01-11 10:06:00,
2013-01-11 03:11:00,43.7,25.1,29.53,NW,306,4.2,4.5,47,-99.99,,,0.00,0,rob ver 1A,2013-01-11 10:11:00,
2013-01-11 03:16:00,43.2,24.2,29.53,NW,304,3.9,4.7,46,-99.99,,,0.00,0,rob ver 1A,2013-01-11 10:16:00,
2013-01-11 03:21:00,42.9,22.9,29.53,NW,312,4.0,4.4,44,-99.99,,,0.00,0,rob ver 1A,2013-01-11 10:21:00,
2013-01-11 03:26:00,42.9,21.8,29.53,NNW,328,4.8,5.6,42,-99.99,,,0.00,0,rob ver 1A,2013-01-11 10:26:00,
2013-01-11 03:31:00,42.8,21.8,29.53,NW,321,4.0,5.1,42,-99.99,,,0.00,0,rob ver 1A,2013-01-11 10:31:00,
2013-01-11 03:36:00,42.8,21.2,29.53,NNW,328,2.7,3.6,41,-99.99,,,0.00,0,rob ver 1A,2013-01-11 10:36:00,
2013-01-11 03:41:00,43.0,20.9,29.53,NNW,342,3.9,4.5,41,-99.99,,,0.00,0,rob ver 1A,2013-01-11 10:41:00,
2013-01-11 03:46:00,42.7,20.2,29.50,North,354,2.4,2.6,39,-99.99,,,0.00,0,rob ver 1A,2013-01-11 10:46:00,
2013-01-11 03:51:00,42.8,19.8,29.53,North,357,5.8,6.3,39,-99.99,,,0.00,0,rob ver 1B,2013-01-11 10:51:00,
2013-01-11 03:56:00,42.2,19.0,29.53,North,3,4.2,5.4,38,-99.99,,,0.00,0,rob ver 1A,2013-01-11 10:56:00,
2013-01-11 04:01:00,41.8,18.7,29.53,NNW,343,4.7,6.1,38,-99.99,,,0.00,0,rob ver 1A,2013-01-11 11:01:00,
2013-01-11 04:06:00,42.4,18.6,29.53,NNW,330,3.0,3.7,38,-99.99,,,0.00,0,rob ver 1A,2013-01-11 11:06:00,
2013-01-11 04:11:00,42.1,18.6,29.53,South,186,1.1,1.5,38,-99.99,,,0.00,0,rob ver 1A,2013-01-11 11:11:00,
2013-01-11 04:16:00,41.5,19.1,29.53,South,171,5.6,6.0,41,-99.99,,,0.00,0,rob ver 1A,2013-01-11 11:16:00,
2013-01-11 04:21:00,39.3,21.5,29.53,SSE,165,5.2,5.5,49,-99.99,,,0.00,0,rob ver 1A,2013-01-11 11:21:00,
2013-01-11 04:26:00,39.5,21.8,29.53,SSE,152,3.4,3.9,48,-99.99,,,0.00,0,rob ver 1A,2013-01-11 11:26:00,
2013-01-11 04:32:00,39.2,21.4,29.53,SSE,162,2.7,3.1,48,-99.99,,,0.00,0,rob ver 1A,2013-01-11 11:32:00,
2013-01-11 04:37:00,40.2,20.0,29.53,SW,219,2.6,3.0,43,-99.99,,,0.00,0,rob ver 1B,2013-01-11 11:37:00,
2013-01-11 04:42:00,40.5,20.0,29.53,WNW,299,1.9,2.5,43,-99.99,,,0.00,0,rob ver 1A,2013-01-11 11:42:00,
2013-01-11 04:47:00,38.5,20.1,29.53,NNW,342,5.7,6.2,47,-99.99,,,0.00,0,rob ver 1A,2013-01-11 11:47:00,
2013-01-11 04:52:00,39.6,19.0,29.53,NW,321,4.4,5.1,42,-99.99,,,0.00,0,rob ver 1A,2013-01-11 11:52:00,
2013-01-11 04:57:00,41.1,18.5,29.53,NNW,327,2.9,3.2,39,-99.99,,,0.00,0,rob ver 1A,2013-01-11 11:57:00,
2013-01-11 05:02:00,41.2,18.3,29.53,NW,316,2.6,2.9,39,-99.99,,,0.00,0,rob ver 1A,2013-01-11 12:02:00,
2013-01-11 05:07:00,41.3,18.3,29.53,North,349,2.8,2.9,39,-99.99,,,0.00,0,rob ver 1A,2013-01-11 12:07:00,
2013-01-11 05:12:00,41.3,18.2,29.53,NNW,340,2.3,2.6,39,-99.99,,,0.00,0,rob ver 1A,2013-01-11 12:12:00,
2013-01-11 05:17:00,41.6,18.0,29.53,NW,311,0.8,1.0,38,-99.99,,,0.00,0,rob ver 1A,2013-01-11 12:17:00,
2013-01-11 05:22:00,41.2,18.1,29.53,SSE,148,0.9,1.1,39,-99.99,,,0.00,0,rob ver 1A,2013-01-11 12:22:00,
2013-01-11 05:27:00,41.1,18.1,29.53,South,181,2.0,2.3,38,-99.99,,,0.00,0,rob ver 1A,2013-01-11 12:27:00,
2013-01-11 05:32:00,38.6,18.4,29.53,SE,140,3.6,4.1,44,-99.99,,,0.00,0,rob ver 1A,2013-01-11 12:32:00,
2013-01-11 05:37:00,37.0,19.0,29.53,ESE,118,3.0,3.4,47,-99.99,,,0.00,0,rob ver 1A,2013-01-11 12:37:00,
2013-01-11 05:42:00,37.3,19.1,29.53,East,80,3.3,3.6,47,-99.99,,,0.00,0,rob ver 1A,2013-01-11 12:42:00,
2013-01-11 05:47:00,37.2,18.6,29.56,NE,43,5.3,6.0,46,-99.99,,,0.00,0,rob ver 1A,2013-01-11 12:47:00,
2013-01-11 05:52:00,36.8,18.7,29.53,NE,44,4.7,5.5,47,-99.99,,,0.00,0,rob ver 1A,2013-01-11 12:52:00,
2013-01-11 05:57:00,37.2,18.9,29.56,NE,53,4.4,5.0,46,-99.99,,,0.00,0,rob ver 1A,2013-01-11 12:57:00,
2013-01-11 06:03:00,37.8,18.8,29.56,ENE,68,4.2,4.7,45,-99.99,,,0.00,0,rob ver 1A,2013-01-11 13:03:00,
2013-01-11 06:08:00,39.2,18.7,29.56,East,82,3.4,3.9,43,-99.99,,,0.00,0,rob ver 1A,2013-01-11 13:08:00,
2013-01-11 06:13:00,38.7,18.6,29.56,ESE,119,2.8,2.9,43,-99.99,,,0.00,0,rob ver 1A,2013-01-11 13:13:00,
2013-01-11 06:18:00,37.7,18.8,29.56,NNE,30,5.8,6.4,46,-99.99,,,0.00,0,rob ver 1A,2013-01-11 13:18:00,
2013-01-11 06:23:00,37.8,19.0,29.56,NE,34,4.7,5.5,46,-99.99,,,0.00,0,rob ver 1A,2013-01-11 13:23:00,
2013-01-11 06:28:00,37.9,19.1,29.56,NNE,32,3.8,4.2,46,-99.99,,,0.00,0,rob ver 1A,2013-01-11 13:28:00,
2013-01-11 06:33:00,38.1,19.1,29.56,North,5,5.4,6.2,45,-99.99,,,0.00,0,rob ver 1A,2013-01-11 13:33:00,
2013-01-11 06:38:00,37.1,19.1,29.56,NNE,20,6.2,6.6,47,-99.99,,,0.00,0,rob ver 1A,2013-01-11 13:38:00,
2013-01-11 06:43:00,37.3,19.2,29.56,North,4,3.7,4.0,47,-99.99,,,0.00,0,rob ver 1A,2013-01-11 13:43:00,
2013-01-11 06:48:00,38.7,19.0,29.56,North,5,2.7,3.1,44,-99.99,,,0.00,0,rob ver 1A,2013-01-11 13:48:00,
2013-01-11 06:53:00,38.0,18.9,29.56,NNE,15,2.9,3.1,45,-99.99,,,0.00,0,rob ver 1A,2013-01-11 13:53:00,
2013-01-11 06:58:00,38.8,19.0,29.56,ENE,57,1.4,1.6,44,-99.99,,,0.00,0,rob ver 1A,2013-01-11 13:58:00,
2013-01-11 07:03:00,38.8,19.0,29.56,SSE,168,0.7,0.8,44,-99.99,,,0.00,0,rob ver 1A,2013-01-11 14:03:00,
2013-01-11 07:08:00,38.0,18.3,29.56,SE,146,0.9,1.2,44,-99.99,,,0.00,0,rob ver 1A,2013-01-11 14:08:00,
2013-01-11 07:13:00,36.2,18.6,29.56,East,89,2.9,3.4,48,-99.99,,,0.00,0,rob ver 1A,2013-01-11 14:13:00,
2013-01-11 07:18:00,35.4,18.9,29.59,NE,47,3.6,4.3,50,-99.99,,,0.00,0,rob ver 1A,2013-01-11 14:18:00,
2013-01-11 07:23:00,35.6,19.0,29.56,ENE,71,3.2,3.8,50,-99.99,,,0.00,0,rob ver 1A,2013-01-11 14:23:00,
2013-01-11 07:28:00,35.7,19.1,29.59,NE,45,4.5,5.0,50,-99.99,,,0.00,.658,rob ver 1A,2013-01-11 14:28:00,
2013-01-11 07:33:00,36.4,19.0,29.59,NE,34,4.4,4.9,48,-99.99,,,0.00,1.481,rob ver 1A,2013-01-11 14:33:00,
2013-01-11 07:38:00,36.7,19.1,29.59,NNE,12,5.0,5.5,48,-99.99,,,0.00,3.621,rob ver 1A,2013-01-11 14:38:00,
2013-01-11 07:43:00,37.8,19.3,29.59,NNE,26,5.0,5.2,46,-99.99,,,0.00,6.584,rob ver 1A,2013-01-11 14:43:00,
2013-01-11 07:48:00,38.7,19.0,29.59,North,353,4.4,5.1,44,-99.99,,,0.00,10.86,rob ver 1A,2013-01-11 14:48:00,
2013-01-11 07:53:00,39.0,19.1,29.59,North,6,1.8,2.2,44,-99.99,,,0.00,20.08,rob ver 1A,2013-01-11 14:53:00,
2013-01-11 07:58:00,38.7,19.4,29.59,NNW,331,0.6,1.1,44,-99.99,,,0.00,30.62,rob ver 1A,2013-01-11 14:58:00,
2013-01-11 08:03:00,39.4,19.2,29.59,North,0,4.3,4.7,44,-99.99,,,0.00,43.13,rob ver 1A,2013-01-11 15:03:00,
2013-01-11 08:08:00,40.5,19.4,29.59,NNW,338,1.6,1.9,41,-99.99,,,0.00,57.61,rob ver 1A,2013-01-11 15:08:00,
2013-01-11 08:13:00,42.2,19.3,29.59,NNW,328,1.4,1.5,39,-99.99,,,0.00,68.15,rob ver 1B,2013-01-11 15:13:00,
2013-01-11 08:18:00,40.2,19.1,29.59,NNE,18,5.2,5.6,42,-99.99,,,0.00,83.3,rob ver 1A,2013-01-11 15:18:00,
2013-01-11 08:23:00,41.1,19.3,29.59,NNE,18,2.5,2.9,40,-99.99,,,0.00,95.8,rob ver 1A,2013-01-11 15:23:00,
2013-01-11 08:28:00,42.6,19.1,29.59,North,359,2.4,2.6,38,-99.99,,,0.00,109.6,rob ver 1A,2013-01-11 15:28:00,
2013-01-11 08:33:00,42.5,19.1,29.59,North,7,3.0,3.3,38,-99.99,,,0.00,122.8,rob ver 1A,2013-01-11 15:33:00,
2013-01-11 08:39:00,42.9,18.9,29.59,North,353,2.7,2.8,37,-99.99,,,0.00,134,rob ver 1A,2013-01-11 15:39:00,
2013-01-11 08:44:00,44.1,19.1,29.59,NNE,22,1.7,2.0,36,-99.99,,,0.00,150.8,rob ver 1A,2013-01-11 15:44:00,
2013-01-11 08:49:00,44.8,19.7,29.59,North,353,1.2,1.6,34,-99.99,,,0.00,165.2,rob ver 1A,2013-01-11 15:49:00,
2013-01-11 08:54:00,46.3,19.2,29.59,NE,39,0.9,1.1,33,-99.99,,,0.00,179.7,rob ver 1A,2013-01-11 15:54:00,
2013-01-11 08:59:00,45.7,19.0,29.62,North,7,3.0,3.2,34,-99.99,,,0.00,195.2,rob ver 1A,2013-01-11 15:59:00,
2013-01-11 09:04:00,46.5,19.5,29.62,North,2,0.5,0.6,33,-99.99,,,0.00,210.3,rob ver 1A,2013-01-11 16:04:00,
2013-01-11 09:09:00,48.5,19.6,29.62,WSW,256,0.7,0.9,30,-99.99,,,0.00,225.1,rob ver 1B,2013-01-11 16:09:00,
2013-01-11 09:14:00,47.6,19.3,29.62,SW,234,1.5,1.8,32,-99.99,,,0.00,240.4,rob ver 1A,2013-01-11 16:14:00,
2013-01-11 09:19:00,46.9,18.8,29.62,SW,223,2.0,2.5,32,-99.99,,,0.00,251.9,rob ver 1A,2013-01-11 16:19:00,
2013-01-11 09:24:00,46.6,18.8,29.62,WSW,243,1.6,1.9,32,-99.99,,,0.00,270.2,rob ver 1A,2013-01-11 16:24:00,
2013-01-11 09:29:00,47.7,19.0,29.62,SW,226,0.9,1.6,31,-99.99,,,0.00,285.3,rob ver 1A,2013-01-11 16:29:00,
2013-01-11 09:34:00,49.1,19.4,29.62,WNW,292,1.2,1.6,30,-99.99,,,0.00,299.2,rob ver 1A,2013-01-11 16:34:00,
2013-01-11 09:39:00,48.1,18.7,29.62,WSW,249,2.2,2.7,30,-99.99,,,0.00,314.9,rob ver 1A,2013-01-11 16:39:00,
2013-01-11 09:44:00,47.9,18.8,29.62,WSW,245,2.8,3.5,30,-99.99,,,0.00,325.2,rob ver 1A,2013-01-11 16:44:00,
2013-01-11 09:49:00,48.3,19.1,29.62,WSW,252,1.4,1.9,31,-99.99,,,0.00,341.3,rob ver 1A,2013-01-11 16:49:00,
2013-01-11 09:54:00,48.5,18.8,29.62,West,273,2.3,3.0,30,-99.99,,,0.00,355.2,rob ver 1B,2013-01-11 16:54:00,
2013-01-11 09:59:00,48.3,19.1,29.62,West,268,2.5,3.5,30,-99.99,,,0.00,369,rob ver 1A,2013-01-11 16:59:00,
2013-01-11 10:04:00,48.3,19.1,29.62,West,267,4.0,4.9,30,-99.99,,,0.00,383.2,rob ver 1A,2013-01-11 17:04:00,
2013-01-11 10:09:00,47.7,18.8,29.62,West,264,4.5,5.1,31,-99.99,,,0.00,395.8,rob ver 1A,2013-01-11 17:09:00,
2013-01-11 10:14:00,48.1,18.7,29.62,West,276,5.0,6.1,30,-99.99,,,0.00,407.6,rob ver 1A,2013-01-11 17:14:00,
2013-01-11 10:19:00,48.5,18.9,29.62,WNW,291,4.4,5.6,30,-99.99,,,0.00,420.9,rob ver 1A,2013-01-11 17:19:00,
2013-01-11 10:24:00,48.6,18.6,29.62,West,272,5.2,6.4,30,-99.99,,,0.00,429.1,rob ver 1A,2013-01-11 17:24:00,
2013-01-11 10:29:00,48.2,17.4,29.62,WNW,289,5.7,8.4,29,-99.99,,,0.00,444.7,rob ver 1A,2013-01-11 17:29:00,
2013-01-11 10:34:00,48.4,17.3,29.62,West,264,8.6,10.2,28,-99.99,,,0.00,457.7,rob ver 1A,2013-01-11 17:34:00,
2013-01-11 10:39:00,48.7,17.2,29.62,West,273,9.5,11.2,28,-99.99,,,0.00,467.5,rob ver 1A,2013-01-11 17:39:00,
2013-01-11 10:44:00,49.1,17.7,29.62,West,277,9.0,12.7,27,-99.99,,,0.00,478.8,rob ver 1A,2013-01-11 17:44:00,
2013-01-11 10:49:00,48.5,17.1,29.62,WNW,302,10.2,13.2,28,-99.99,,,0.00,489,rob ver 1A,2013-01-11 17:49:00,
2013-01-11 10:54:00,49.2,17.6,29.62,WNW,285,9.7,12.5,27,-99.99,,,0.00,499,rob ver 1A,2013-01-11 17:54:00,
2013-01-11 11:00:00,48.9,17.5,29.62,WNW,297,9.0,11.4,28,-99.99,,,0.00,508.2,rob ver 1A,2013-01-11 18:00:00,
2013-01-11 11:05:00,49.5,17.6,29.62,West,264,8.6,10.0,27,-99.99,,,0.00,517.5,rob ver 1A,2013-01-11 18:05:00,
2013-01-11 11:10:00,49.4,17.4,29.62,West,274,8.1,12.1,28,-99.99,,,0.00,526.9,rob ver 1A,2013-01-11 18:10:00,
2013-01-11 11:15:00,49.7,17.7,29.62,WNW,283,8.0,11.9,27,-99.99,,,0.00,535.4,rob ver 1A,2013-01-11 18:15:00,
2013-01-11 11:20:00,50.2,17.7,29.62,West,279,8.4,10.6,27,-99.99,,,0.00,542.7,rob ver 1A,2013-01-11 18:20:00,
2013-01-11 11:25:00,49.8,17.3,29.62,WNW,291,6.9,8.8,27,-99.99,,,0.00,550.5,rob ver 1B,2013-01-11 18:25:00,
2013-01-11 11:30:00,50.3,17.7,29.62,West,281,10.1,11.6,26,-99.99,,,0.00,557.6,rob ver 1A,2013-01-11 18:30:00,
2013-01-11 11:35:00,50.2,17.4,29.62,WNW,287,7.6,11.3,26,-99.99,,,0.00,563.2,rob ver 1A,2013-01-11 18:35:00,
2013-01-11 11:40:00,50.5,17.8,29.62,WNW,298,8.4,10.6,26,-99.99,,,0.00,570.4,rob ver 1A,2013-01-11 18:40:00,
2013-01-11 11:45:00,51.0,17.7,29.62,WNW,300,5.2,6.3,26,-99.99,,,0.00,575.8,rob ver 1A,2013-01-11 18:45:00,
2013-01-11 11:50:00,50.9,17.5,29.62,NW,312,7.1,9.2,26,-99.99,,,0.00,581.7,rob ver 1A,2013-01-11 18:50:00,
2013-01-11 11:55:00,51.5,18.1,29.59,West,271,8.8,11.7,26,-99.99,,,0.00,586.8,rob ver 1A,2013-01-11 18:55:00,
2013-01-11 12:00:00,50.8,17.5,29.59,West,275,4.3,6.8,26,-99.99,,,0.00,590.3,rob ver 1B,2013-01-11 19:00:00,
2013-01-11 12:05:00,51.4,17.3,29.59,WNW,292,6.1,8.3,25,-99.99,,,0.00,596.4,rob ver 1A,2013-01-11 19:05:00,
2013-01-11 12:10:00,51.3,17.0,29.59,WSW,253,5.1,7.9,25,-99.99,,,0.00,601,rob ver 1A,2013-01-11 19:10:00,
2013-01-11 12:15:00,52.2,17.3,29.59,West,281,1.8,2.7,24,-99.99,,,0.00,601.4,rob ver 1A,2013-01-11 19:15:00,
2013-01-11 12:20:00,52.4,16.9,29.59,West,260,5.5,8.4,24,-99.99,,,0.00,606.7,rob ver 1A,2013-01-11 19:20:00,
2013-01-11 12:25:00,52.4,16.2,29.59,NW,325,7.8,10.0,23,-99.99,,,0.00,609.9,rob ver 1A,2013-01-11 19:25:00,
2013-01-11 12:30:00,52.2,15.9,29.59,West,279,8.1,10.4,23,-99.99,,,0.00,611.1,rob ver 1A,2013-01-11 19:30:00,
2013-01-11 12:35:00,51.7,16.2,29.59,NW,307,8.8,10.9,23,-99.99,,,0.00,612,rob ver 1A,2013-01-11 19:35:00,
2013-01-11 12:40:00,52.3,16.3,29.56,West,267,7.1,8.6,23,-99.99,,,0.00,613.8,rob ver 1A,2013-01-11 19:40:00,
2013-01-11 12:46:00,52.4,16.5,29.56,WSW,254,4.4,6.3,23,-99.99,,,0.00,615.1,rob ver 1B,2013-01-11 19:46:00,
2013-01-11 12:51:00,52.7,16.0,29.56,West,279,6.9,12.3,23,-99.99,,,0.00,617,rob ver 1A,2013-01-11 19:51:00,
2013-01-11 12:56:00,52.8,15.9,29.56,WNW,286,6.6,8.6,22,-99.99,,,0.00,614,rob ver 1A,2013-01-11 19:56:00,
2013-01-11 13:01:00,53.0,14.7,29.56,WNW,291,9.1,10.6,21,-99.99,,,0.00,615.7,rob ver 1A,2013-01-11 20:01:00,
2013-01-11 13:06:00,53.3,14.7,29.56,WNW,303,10.5,14.1,21,-99.99,,,0.00,613.9,rob ver 1A,2013-01-11 20:06:00,
2013-01-11 13:11:00,53.0,15.2,29.56,WSW,255,8.8,11.5,22,-99.99,,,0.00,611.2,rob ver 1A,2013-01-11 20:11:00,
2013-01-11 13:16:00,53.0,14.4,29.56,West,266,10.8,12.3,21,-99.99,,,0.00,612.4,rob ver 1A,2013-01-11 20:16:00,
2013-01-11 13:21:00,53.6,13.6,29.53,WSW,256,13.9,16.9,19,-99.99,,,0.00,609.1,rob ver 1B,2013-01-11 20:21:00,
2013-01-11 13:27:00,53.1,13.7,29.56,West,269,9.7,13.1,20,-99.99,,,0.00,604.8,rob ver 1A,2013-01-11 20:27:00,
2013-01-11 13:32:00,53.3,13.8,29.53,SW,232,9.4,11.5,20,-99.99,,,0.00,601.5,rob ver 1A,2013-01-11 20:32:00,
2013-01-11 13:37:00,52.6,14.1,29.53,SW,232,6.9,9.1,21,-99.99,,,0.00,595.6,rob ver 1A,2013-01-11 20:37:00,
2013-01-11 13:42:00,53.0,14.1,29.53,SW,226,7.0,10.2,20,-99.99,,,0.00,592.8,rob ver 1A,2013-01-11 20:42:00,
2013-01-11 13:47:00,53.3,13.6,29.53,West,271,12.4,16.3,20,-99.99,,,0.00,587.5,rob ver 1B,2013-01-11 20:47:00,
2013-01-11 13:52:00,53.2,13.2,29.53,West,265,8.3,10.6,19,-99.99,,,0.00,582.6,rob ver 1A,2013-01-11 20:52:00,
2013-01-11 13:57:00,53.6,13.6,29.53,WSW,256,7.5,10.3,20,-99.99,,,0.00,575.4,rob ver 1A,2013-01-11 20:57:00,
2013-01-11 14:02:00,53.4,12.2,29.53,SW,224,7.9,9.6,18,-99.99,,,0.00,569,rob ver 1A,2013-01-11 21:02:00,
2013-01-11 14:07:00,53.2,12.6,29.53,WSW,254,8.1,14.1,19,-99.99,,,0.00,564,rob ver 1A,2013-01-11 21:07:00,
2013-01-11 14:12:00,53.6,13.1,29.53,WSW,253,11.5,14.5,19,-99.99,,,0.00,558.4,rob ver 1A,2013-01-11 21:12:00,
2013-01-11 14:17:00,54.1,12.7,29.53,WSW,257,13.2,16.9,18,-99.99,,,0.00,552.8,rob ver 1A,2013-01-11 21:17:00,
2013-01-11 14:22:00,53.9,12.6,29.53,West,274,10.1,11.9,18,-99.99,,,0.00,543.5,rob ver 1A,2013-01-11 21:22:00,
2013-01-11 14:27:00,54.0,12.3,29.53,WNW,287,5.6,9.0,18,-99.99,,,0.00,535.4,rob ver 1A,2013-01-11 21:27:00,
2013-01-11 14:32:00,54.2,13.4,29.53,West,267,8.2,10.6,19,-99.99,,,0.00,526.2,rob ver 1A,2013-01-11 21:32:00,
2013-01-11 14:37:00,54.4,12.9,29.53,WSW,244,7.5,9.8,19,-99.99,,,0.00,518.6,rob ver 1A,2013-01-11 21:37:00,
2013-01-11 14:42:00,53.6,13.7,29.53,West,266,3.0,5.1,19,-99.99,,,0.00,508,rob ver 1A,2013-01-11 21:42:00,
2013-01-11 14:47:00,53.7,13.8,29.53,SSW,203,5.5,8.1,20,-99.99,,,0.00,497.3,rob ver 1A,2013-01-11 21:47:00,
2013-01-11 14:52:00,54.0,12.5,29.53,WSW,245,6.4,8.2,19,-99.99,,,0.00,485.8,rob ver 1A,2013-01-11 21:52:00,
2013-01-11 14:57:00,54.1,12.5,29.53,NW,308,7.4,9.7,18,-99.99,,,0.00,475.4,rob ver 1A,2013-01-11 21:57:00,
2013-01-11 15:02:00,54.2,12.3,29.53,SW,235,2.9,4.1,18,-99.99,,,0.00,465.7,rob ver 1A,2013-01-11 22:02:00,
2013-01-11 15:07:00,54.3,11.5,29.53,WSW,237,4.9,8.1,17,-99.99,,,0.00,454.4,rob ver 1A,2013-01-11 22:07:00,
2013-01-11 15:12:00,54.1,11.4,29.53,WNW,284,9.0,10.6,17,-99.99,,,0.00,441.9,rob ver 1A,2013-01-11 22:12:00,
2013-01-11 15:18:00,54.0,11.2,29.53,NW,304,5.7,7.2,17,-99.99,,,0.00,431.7,rob ver 1A,2013-01-11 22:18:00,
2013-01-11 15:23:00,54.6,11.6,29.53,WNW,295,2.6,3.6,17,-99.99,,,0.00,422.4,rob ver 1A,2013-01-11 22:23:00,
2013-01-11 15:28:00,53.8,10.9,29.53,SW,235,3.4,4.7,17,-99.99,,,0.00,405.8,rob ver 1A,2013-01-11 22:28:00,
2013-01-11 15:33:00,54.6,11.2,29.53,WSW,245,4.2,5.2,17,-99.99,,,0.00,391.8,rob ver 1A,2013-01-11 22:33:00,
2013-01-11 15:38:00,54.3,11.0,29.53,SW,229,6.3,7.8,17,-99.99,,,0.00,380.8,rob ver 1A,2013-01-11 22:38:00,
2013-01-11 15:43:00,54.5,10.7,29.53,SW,224,7.2,9.5,17,-99.99,,,0.00,368,rob ver 1A,2013-01-11 22:43:00,
2013-01-11 15:48:00,54.4,10.5,29.53,SW,235,5.9,9.5,17,-99.99,,,0.00,357.3,rob ver 1A,2013-01-11 22:48:00,
2013-01-11 15:53:00,54.3,10.3,29.53,SW,234,7.0,10.0,16,-99.99,,,0.00,339.6,rob ver 1A,2013-01-11 22:53:00,
2013-01-11 15:58:00,54.1,10.1,29.53,WSW,240,7.5,9.3,16,-99.99,,,0.00,325.1,rob ver 1A,2013-01-11 22:58:00,
2013-01-11 16:03:00,54.4,9.6,29.53,West,279,10.5,13.0,16,-99.99,,,0.00,311,rob ver 1A,2013-01-11 23:03:00,
2013-01-11 16:08:00,54.4,10.1,29.53,SW,235,5.7,9.1,16,-99.99,,,0.00,297.1,rob ver 1A,2013-01-11 23:08:00,
2013-01-11 16:13:00,54.8,9.0,29.53,WNW,288,6.1,7.3,15,-99.99,,,0.00,282.6,rob ver 1B,2013-01-11 23:13:00,
2013-01-11 16:18:00,54.1,10.1,29.50,SW,224,6.0,10.0,16,-99.99,,,0.00,267.3,rob ver 1A,2013-01-11 23:18:00,
2013-01-11 16:23:00,54.7,9.8,29.50,WSW,240,7.1,8.6,16,-99.99,,,0.00,252.9,rob ver 1A,2013-01-11 23:23:00,
2013-01-11 16:28:00,54.2,9.1,29.50,WSW,253,6.6,8.6,16,-99.99,,,0.00,241.6,rob ver 1A,2013-01-11 23:28:00,
2013-01-11 16:34:00,54.4,9.2,29.50,SW,225,4.0,6.0,15,-99.99,,,0.00,220.1,rob ver 1B,2013-01-11 23:34:00,
2013-01-11 16:39:00,54.4,10.0,29.50,SSW,194,4.2,4.9,16,-99.99,,,0.00,204.9,rob ver 1A,2013-01-11 23:39:00,
2013-01-11 16:44:00,54.2,9.2,29.50,West,271,6.3,8.6,16,-99.99,,,0.00,187.2,rob ver 1A,2013-01-11 23:44:00,
2013-01-11 16:50:00,54.1,8.8,29.50,West,267,7.3,9.6,16,-99.99,,,0.00,172.4,rob ver 1A,2013-01-11 23:50:00,
2013-01-11 16:55:00,53.9,8.8,29.50,WSW,243,7.3,8.6,15,-99.99,,,0.00,157,rob ver 1A,2013-01-11 23:55:00,
2013-01-11 17:00:00,54.2,9.0,29.50,West,263,2.7,3.6,16,-99.99,,,0.00,141.4,rob ver 1A,2013-01-12 00:00:00,
2013-01-11 17:05:00,54.0,7.6,29.50,West,268,8.8,9.8,15,-99.99,,,0.00,127.6,rob ver 1A,2013-01-12 00:05:00,
2013-01-11 17:10:00,53.8,7.3,29.50,West,263,7.5,8.9,15,-99.99,,,0.00,113.7,rob ver 1A,2013-01-12 00:10:00,
2013-01-11 17:15:00,53.6,7.5,29.50,West,266,6.7,8.1,15,-99.99,,,0.00,99.2,rob ver 1A,2013-01-12 00:15:00,
2013-01-11 17:20:00,53.6,7.8,29.50,West,263,4.5,5.6,15,-99.99,,,0.00,88,rob ver 1A,2013-01-12 00:20:00,
2013-01-11 17:25:00,53.5,7.5,29.50,West,270,5.1,5.7,15,-99.99,,,0.00,72.3,rob ver 1A,2013-01-12 00:25:00,
2013-01-11 17:30:00,53.4,9.2,29.50,West,263,6.8,8.2,16,-99.99,,,0.00,58.47,rob ver 1A,2013-01-12 00:30:00,
2013-01-11 17:35:00,53.2,9.1,29.50,West,259,5.8,6.9,16,-99.99,,,0.00,50.59,rob ver 1B,2013-01-12 00:35:00,
2013-01-11 17:40:00,52.8,8.5,29.50,West,269,5.4,7.0,16,-99.99,,,0.00,33.51,rob ver 1A,2013-01-12 00:40:00,
2013-01-11 17:45:00,52.6,9.0,29.50,WSW,258,5.0,6.4,16,-99.99,,,0.00,23,rob ver 1A,2013-01-12 00:45:00,
2013-01-11 17:50:00,52.1,9.4,29.50,WSW,253,4.6,5.3,17,-99.99,,,0.00,6.57,rob ver 1A,2013-01-12 00:50:00,
2013-01-11 17:55:00,51.7,9.3,29.50,WSW,251,4.7,5.5,17,-99.99,,,0.00,3.778,rob ver 1B,2013-01-12 00:55:00,
2013-01-11 18:00:00,51.3,9.0,29.50,WSW,258,3.9,4.6,17,-99.99,,,0.00,2.3,rob ver 1A,2013-01-12 01:00:00,
2013-01-11 18:05:00,50.9,8.9,29.50,West,263,3.7,4.4,17,-99.99,,,0.00,.986,rob ver 1A,2013-01-12 01:05:00,
2013-01-11 18:10:00,50.6,8.5,29.50,West,268,3.6,4.1,17,-99.99,,,0.00,.329,rob ver 1A,2013-01-12 01:10:00,
2013-01-11 18:15:00,50.4,8.6,29.50,West,261,3.2,3.7,18,-99.99,,,0.00,.164,rob ver 1A,2013-01-12 01:15:00,
2013-01-11 18:20:00,50.0,8.5,29.50,West,262,3.3,3.7,18,-99.99,,,0.00,0,rob ver 1A,2013-01-12 01:20:00,
2013-01-11 18:25:00,49.6,8.4,29.50,West,271,3.0,3.1,18,-99.99,,,0.00,0,rob ver 1A,2013-01-12 01:25:00,
2013-01-11 18:30:00,49.4,8.5,29.50,WNW,287,3.0,3.3,18,-99.99,,,0.00,0,rob ver 1A,2013-01-12 01:30:00,
2013-01-11 18:35:00,49.1,8.7,29.50,West,278,1.8,2.1,19,-99.99,,,0.00,0,rob ver 1A,2013-01-12 01:35:00,
2013-01-11 18:40:00,48.3,8.7,29.50,SSE,157,2.5,3.6,19,-99.99,,,0.00,0,rob ver 1A,2013-01-12 01:40:00,
2013-01-11 18:46:00,48.2,9.9,29.50,SSW,193,3.6,4.0,20,-99.99,,,0.00,0,rob ver 1A,2013-01-12 01:46:00,
2013-01-11 18:51:00,48.6,10.3,29.50,SSW,201,2.6,3.3,21,-99.99,,,0.00,0,rob ver 1B,2013-01-12 01:51:00,
2013-01-11 18:56:00,48.2,11.0,29.50,SSW,201,4.7,5.3,21,-99.99,,,0.00,0,rob ver 1A,2013-01-12 01:56:00,
2013-01-11 19:01:00,48.8,11.0,29.50,SW,235,4.4,5.4,21,-99.99,,,0.00,0,rob ver 1A,2013-01-12 02:01:00,
2013-01-11 19:06:00,49.0,10.9,29.50,SW,222,3.6,4.4,21,-99.99,,,0.00,0,rob ver 1A,2013-01-12 02:06:00,
2013-01-11 19:11:00,48.6,10.9,29.50,SSW,212,5.2,6.0,21,-99.99,,,0.00,0,rob ver 1A,2013-01-12 02:11:00,
2013-01-11 19:16:00,48.5,11.0,29.50,SSW,212,5.2,6.7,21,-99.99,,,0.00,0,rob ver 1A,2013-01-12 02:16:00,
2013-01-11 19:21:00,48.0,11.1,29.50,SSW,205,5.2,6.5,22,-99.99,,,0.00,0,rob ver 1A,2013-01-12 02:21:00,
2013-01-11 19:26:00,48.0,11.0,29.50,SSW,199,5.2,5.9,22,-99.99,,,0.00,0,rob ver 1A,2013-01-12 02:26:00,
2013-01-11 19:31:00,47.8,11.2,29.50,SSW,204,4.0,4.8,22,-99.99,,,0.00,0,rob ver 1A,2013-01-12 02:31:00,
2013-01-11 19:36:00,47.2,11.6,29.50,SW,220,4.9,6.0,23,-99.99,,,0.00,0,rob ver 1B,2013-01-12 02:36:00,
2013-01-11 19:41:00,47.0,11.3,29.50,West,261,2.3,2.8,23,-99.99,,,0.00,0,rob ver 1A,2013-01-12 02:41:00,
2013-01-11 19:46:00,46.5,11.5,29.50,WSW,249,2.2,2.5,23,-99.99,,,0.00,0,rob ver 1A,2013-01-12 02:46:00,
2013-01-11 19:51:00,46.5,11.8,29.50,SSW,211,3.8,4.6,24,-99.99,,,0.00,0,rob ver 1A,2013-01-12 02:51:00,
2013-01-11 19:56:00,46.3,11.3,29.50,SSW,210,2.8,3.8,23,-99.99,,,0.00,0,rob ver 1A,2013-01-12 02:56:00,
2013-01-11 20:01:00,46.7,12.0,29.50,SSW,208,3.7,4.0,24,-99.99,,,0.00,0,rob ver 1A,2013-01-12 03:01:00,
2013-01-11 20:06:00,46.4,11.9,29.50,SW,234,2.3,2.8,24,-99.99,,,0.00,0,rob ver 1A,2013-01-12 03:06:00,
2013-01-11 20:11:00,46.0,11.9,29.50,West,260,2.5,2.8,24,-99.99,,,0.00,0,rob ver 1A,2013-01-12 03:11:00,
2013-01-11 20:16:00,45.7,12.0,29.50,WSW,254,3.0,3.7,25,-99.99,,,0.00,0,rob ver 1A,2013-01-12 03:16:00,
2013-01-11 20:21:00,45.8,12.0,29.50,West,270,3.3,3.8,24,-99.99,,,0.00,0,rob ver 1B,2013-01-12 03:21:00,
2013-01-11 20:26:00,45.7,12.0,29.50,West,276,3.3,4.0,25,-99.99,,,0.00,0,rob ver 1A,2013-01-12 03:26:00,
2013-01-11 20:32:00,46.0,12.1,29.50,West,276,2.8,3.4,24,-99.99,,,0.00,0,rob ver 1A,2013-01-12 03:32:00,
2013-01-11 20:37:00,46.3,12.2,29.50,West,278,2.3,2.5,24,-99.99,,,0.00,0,rob ver 1A,2013-01-12 03:37:00,
2013-01-11 20:42:00,46.2,12.1,29.50,West,272,2.9,3.3,24,-99.99,,,0.00,0,rob ver 1A,2013-01-12 03:42:00,
2013-01-11 20:47:00,46.1,12.1,29.50,WSW,257,2.5,2.7,24,-99.99,,,0.00,0,rob ver 1A,2013-01-12 03:47:00,
2013-01-11 20:52:00,45.4,12.0,29.50,WNW,296,3.0,3.2,25,-99.99,,,0.00,0,rob ver 1A,2013-01-12 03:52:00,
2013-01-11 20:57:00,45.8,12.1,29.50,WNW,294,2.1,2.6,25,-99.99,,,0.00,0,rob ver 1B,2013-01-12 03:57:00,
2013-01-11 21:02:00,45.3,12.1,29.50,NNW,335,2.3,3.2,25,-99.99,,,0.00,0,rob ver 1A,2013-01-12 04:02:00,
2013-01-11 21:07:00,45.0,12.1,29.50,NNW,337,1.1,1.3,25,-99.99,,,0.00,0,rob ver 1A,2013-01-12 04:07:00,
2013-01-11 21:12:00,44.8,11.8,29.50,NNE,24,2.1,2.4,25,-99.99,,,0.00,0,rob ver 1A,2013-01-12 04:12:00,
2013-01-11 21:17:00,44.3,12.0,29.50,NNE,14,0.7,1.2,26,-99.99,,,0.00,0,rob ver 1A,2013-01-12 04:17:00,
2013-01-11 21:22:00,44.3,11.4,29.50,NNE,27,4.1,4.4,25,-99.99,,,0.00,0,rob ver 1A,2013-01-12 04:22:00,
2013-01-11 21:27:00,44.4,11.2,29.50,NE,38,3.3,3.9,25,-99.99,,,0.00,0,rob ver 1A,2013-01-12 04:27:00,
2013-01-11 21:32:00,42.3,10.5,29.50,NNE,18,3.3,3.6,26,-99.99,,,0.00,0,rob ver 1A,2013-01-12 04:32:00,
2013-01-11 21:37:00,41.9,10.5,29.53,NE,41,3.9,4.3,27,-99.99,,,0.00,0,rob ver 1A,2013-01-12 04:37:00,
2013-01-11 21:42:00,41.9,10.5,29.53,North,359,2.9,3.5,27,-99.99,,,0.00,0,rob ver 1A,2013-01-12 04:42:00,
2013-01-11 21:47:00,41.8,10.8,29.53,NNW,346,3.0,3.2,27,-99.99,,,0.00,0,rob ver 1A,2013-01-12 04:47:00,
2013-01-11 21:52:00,41.3,10.8,29.53,North,356,2.8,3.4,28,-99.99,,,0.00,0,rob ver 1B,2013-01-12 04:52:00,
2013-01-11 21:57:00,42.0,11.2,29.53,NNW,348,3.0,3.4,27,-99.99,,,0.00,0,rob ver 1A,2013-01-12 04:57:00,
2013-01-11 22:00:00,41.8,11.2,29.53,North,7,3.0,3.7,28,-99.99,,,0.00,0,rob ver 1B,2013-01-12 05:00:00,
2013-01-11 22:01:00,41.8,11.1,29.53,North,6,2.9,3.3,28,-99.99,,,0.00,0,rob ver 1A,2013-01-12 05:01:00,
2013-01-11 22:02:00,41.8,11.1,29.53,North,10,3.8,4.7,28,-99.99,,,0.00,0,rob ver 1A,2013-01-12 05:02:00,
2013-01-11 22:03:00,41.9,11.2,29.53,NNE,18,4.1,4.6,28,-99.99,,,0.00,0,rob ver 1B,2013-01-12 05:03:00,
2013-01-11 22:08:00,41.8,11.3,29.53,NE,37,2.0,2.8,28,-99.99,,,0.00,0,rob ver 1B,2013-01-12 05:08:00,
2013-01-11 22:14:00,41.6,11.5,29.53,North,10,3.7,4.1,28,-99.99,,,0.00,0,rob ver 1A,2013-01-12 05:14:00,
2013-01-11 22:19:00,41.9,11.6,29.53,NNE,27,4.6,5.3,28,-99.99,,,0.00,0,rob ver 1A,2013-01-12 05:19:00,
2013-01-11 22:24:00,41.7,11.5,29.53,NNE,22,4.6,5.2,28,-99.99,,,0.00,0,rob ver 1A,2013-01-12 05:24:00,
2013-01-11 22:29:00,41.6,11.6,29.53,NNE,26,4.4,5.1,28,-99.99,,,0.00,0,rob ver 1A,2013-01-12 05:29:00,
2013-01-11 22:34:00,41.1,11.4,29.53,North,358,4.3,5.0,29,-99.99,,,0.00,0,rob ver 1A,2013-01-12 05:34:00,
2013-01-11 22:39:00,41.1,11.6,29.53,NE,38,5.9,6.8,29,-99.99,,,0.00,0,rob ver 1A,2013-01-12 05:39:00,
2013-01-11 22:44:00,40.9,11.5,29.53,NNE,33,5.8,6.5,29,-99.99,,,0.00,0,rob ver 1A,2013-01-12 05:44:00,
2013-01-11 22:49:00,40.4,11.4,29.53,NE,35,4.8,5.8,29,-99.99,,,0.00,0,rob ver 1A,2013-01-12 05:49:00,
2013-01-11 22:54:00,40.0,11.3,29.53,NE,39,4.5,5.0,30,-99.99,,,0.00,0,rob ver 1A,2013-01-12 05:54:00,
2013-01-11 22:59:00,39.7,11.3,29.53,NNE,28,6.2,6.6,30,-99.99,,,0.00,0,rob ver 1A,2013-01-12 05:59:00,
2013-01-11 23:04:00,39.9,11.4,29.53,North,11,5.7,6.0,30,-99.99,,,0.00,0,rob ver 1A,2013-01-12 06:04:00,
2013-01-11 23:09:00,40.6,11.4,29.53,NNE,12,5.2,5.5,29,-99.99,,,0.00,0,rob ver 1A,2013-01-12 06:09:00,
2013-01-11 23:14:00,40.4,11.1,29.53,NNE,21,3.9,4.4,29,-99.99,,,0.00,0,rob ver 1A,2013-01-12 06:14:00,
2013-01-11 23:19:00,39.6,11.0,29.53,North,7,3.5,3.7,30,-99.99,,,0.00,0,rob ver 1A,2013-01-12 06:19:00,
2013-01-11 23:25:00,40.8,11.2,29.53,NNE,14,3.4,3.6,29,-99.99,,,0.00,0,rob ver 1A,2013-01-12 06:25:00,
2013-01-11 23:30:00,40.4,11.1,29.53,NNE,23,2.6,2.8,29,-99.99,,,0.00,0,rob ver 1A,2013-01-12 06:30:00,
2013-01-11 23:35:00,40.2,10.8,29.53,SSW,193,4.8,5.5,29,-99.99,,,0.00,0,rob ver 1A,2013-01-12 06:35:00,
2013-01-11 23:40:00,41.3,12.7,29.53,South,175,5.2,7.3,30,-99.99,,,0.00,0,rob ver 1A,2013-01-12 06:40:00,
2013-01-11 23:45:00,42.5,13.2,29.53,South,169,5.3,6.0,30,-99.99,,,0.00,0,rob ver 1A,2013-01-12 06:45:00,
2013-01-11 23:50:00,41.9,13.8,29.53,SE,137,4.5,5.1,31,-99.99,,,0.00,0,rob ver 1A,2013-01-12 06:50:00,
2013-01-11 23:55:00,41.0,13.6,29.53,SE,128,3.9,4.8,32,-99.99,,,0.00,0,rob ver 1A,2013-01-12 06:55:00,